This is the latest recevied weather packets stored in our database for station/object VK2KGV-15. If no packets are shown the sender has not sent any weather packets the latest 10 day(s).
| Time | Temp. | Humidity | Pressure | Rain* | Wind** | Luminosity | Snow |
|---|---|---|---|---|---|---|---|
| 1778255995 | 1.67° C | 83% | 1021.6 hPa | 0 mm | - | - | - |
| 1778254789 | 1.67° C | 81% | 1021.9 hPa | 0 mm | - | - | - |
| 1778253583 | 1.67° C | 81% | 1022 hPa | 0 mm | - | - | - |
| 1778249964 | 1.67° C | 77% | 1021.9 hPa | 0 mm | - | - | - |
| 1778248758 | 1.67° C | 76% | 1022.1 hPa | 0 mm | - | - | - |
| 1778248155 | 2.22° C | 76% | 1021.9 hPa | 0 mm | - | - | - |
| 1778229459 | 11.11° C | 50% | 1020.1 hPa | 0 mm | - | - | - |
| 1778227046 | 13.33° C | 44% | 1019.4 hPa | 0 mm | - | - | - |
| 1778224031 | 15.56° C | 40% | 1018.5 hPa | 0 mm | - | - | - |
| 1778223431 | 16.11° C | 39% | 1018.4 hPa | 0 mm | - | - | - |
| 1778222825 | 16.11° C | 38% | 1018.3 hPa | 0 mm | - | - | - |
| 1778221621 | 16.67° C | 39% | 1018 hPa | 0 mm | - | - | - |
| 1778221015 | 16.67° C | 38% | 1017.9 hPa | 0 mm | - | - | - |
| 1778219809 | 17.78° C | 36% | 1017.8 hPa | 0 mm | - | - | - |
| 1778218603 | 18.89° C | 34% | 1017.4 hPa | 0 mm | - | - | - |
| 1778214987 | 19.44° C | 33% | 1017.2 hPa | 0 mm | - | - | - |
| 1778214381 | 18.89° C | 33% | 1017.3 hPa | 0 mm | - | - | - |
| 1778210763 | 18.33° C | 35% | 1018 hPa | 0 mm | - | - | - |
| 1778208350 | 17.22° C | 37% | 1018.4 hPa | 0 mm | - | - | - |
| 1778204131 | 15.56° C | 39% | 1019.3 hPa | 0 mm | - | - | - |
| 1778202922 | 15° C | 40% | 1019.6 hPa | 0 mm | - | - | - |
| 1778201716 | 14.44° C | 41% | 1020 hPa | 0 mm | - | - | - |
| 1778198097 | 12.78° C | 45% | 1020.4 hPa | 0 mm | - | - | - |
| 1778197494 | 11.67° C | 47% | 1020.7 hPa | 0 mm | - | - | - |
| 1778196891 | 11.11° C | 49% | 1020.8 hPa | 0 mm | - | - | - |
* Rain since midnight (hover to see other rain measurements)
** Current wind speed in m/s (hover to see current wind gust speed)